createdAt,value
2023-06-04T00:00:01.614Z,12.17
2023-06-04T00:02:29.385Z,12.02
2023-06-04T00:04:57.147Z,12.05
2023-06-04T00:07:26.188Z,12.22
2023-06-04T00:09:54.431Z,12.27
2023-06-04T00:12:22.250Z,12.39
2023-06-04T00:14:49.996Z,12.38
2023-06-04T00:17:17.728Z,11.93
2023-06-04T00:19:45.531Z,12.04
2023-06-04T00:22:13.263Z,12.48
2023-06-04T00:24:42.326Z,12.41
2023-06-04T00:27:10.894Z,11.87
2023-06-04T00:29:38.718Z,12.26
2023-06-04T00:32:07.224Z,12.38
2023-06-04T00:34:35.021Z,12.34
2023-06-04T00:37:03.461Z,12.26
2023-06-04T00:39:31.294Z,12.27
2023-06-04T00:42:00.357Z,11.98
2023-06-04T00:44:28.197Z,12.14
2023-06-04T00:46:56.770Z,12.37
2023-06-04T00:49:24.524Z,12.32
2023-06-04T00:51:53.271Z,11.35
2023-06-04T00:54:21.843Z,11.71
2023-06-04T00:56:50.076Z,11.67
2023-06-04T00:59:19.312Z,10.94
2023-06-04T01:01:51.863Z,11.39
2023-06-04T01:04:25.959Z,11.34
2023-06-04T01:06:58.304Z,11.56
2023-06-04T01:09:28.173Z,11.51
2023-06-04T01:11:58.499Z,11.13
2023-06-04T01:14:27.617Z,11.09
2023-06-04T01:17:03.973Z,10.89
2023-06-04T01:20:04.127Z,10.61
2023-06-04T01:22:40.619Z,10.79
2023-06-04T01:25:24.762Z,10.72
2023-06-04T01:27:57.200Z,11.15
2023-06-04T01:30:29.056Z,11.24
2023-06-04T01:32:57.439Z,11.59
2023-06-04T01:35:28.222Z,11.69
2023-06-04T01:37:57.602Z,11.63
2023-06-04T01:40:26.717Z,11.49
2023-06-04T01:42:54.455Z,10.42
2023-06-04T01:45:22.810Z,10.01
2023-06-04T01:47:52.138Z,10.28
2023-06-04T01:50:19.947Z,10.45
2023-06-04T01:52:47.710Z,10.47
2023-06-04T01:55:16.750Z,9.97
2023-06-04T01:57:45.949Z,10.31
2023-06-04T02:00:15.436Z,10.01
2023-06-04T02:02:44.813Z,10.28
2023-06-04T02:05:14.219Z,10.96
2023-06-04T02:07:45.794Z,10.79
2023-06-04T02:10:14.801Z,11.27
2023-06-04T02:12:55.418Z,10.28
2023-06-04T02:15:24.403Z,10.76
2023-06-04T02:17:52.504Z,11.00
2023-06-04T02:20:21.573Z,10.85
2023-06-04T02:22:49.312Z,10.68
2023-06-04T02:25:17.450Z,10.33
2023-06-04T02:27:45.238Z,10.18
2023-06-04T02:30:13.084Z,9.98
2023-06-04T02:32:41.855Z,10.34
2023-06-04T02:35:10.280Z,10.59
2023-06-04T02:37:40.124Z,10.33
2023-06-04T02:40:09.253Z,10.27
2023-06-04T02:42:37.025Z,9.84
2023-06-04T02:45:05.343Z,10.53
2023-06-04T02:47:33.037Z,10.60
2023-06-04T02:50:00.713Z,10.50
2023-06-04T02:52:28.656Z,10.58
2023-06-04T02:54:58.194Z,10.14
2023-06-04T02:57:25.884Z,10.06
2023-06-04T02:59:56.418Z,10.06
2023-06-04T03:02:24.169Z,9.53
2023-06-04T03:04:52.542Z,9.70
2023-06-04T03:07:21.639Z,9.96
2023-06-04T03:09:49.293Z,9.32
2023-06-04T03:12:18.464Z,9.39
2023-06-04T03:14:46.262Z,9.08
2023-06-04T03:17:14.067Z,9.61
2023-06-04T03:19:43.687Z,9.69
2023-06-04T03:22:11.962Z,10.34
2023-06-04T03:24:41.847Z,10.35
2023-06-04T03:27:10.964Z,10.11
2023-06-04T03:29:39.965Z,9.97
2023-06-04T03:32:09.051Z,9.60
2023-06-04T03:34:36.697Z,9.56
2023-06-04T03:37:04.654Z,9.48
2023-06-04T03:39:32.424Z,9.50
2023-06-04T03:42:00.161Z,10.07
2023-06-04T03:44:27.850Z,10.39
2023-06-04T03:46:56.961Z,10.55
2023-06-04T03:49:24.710Z,10.15
2023-06-04T03:51:52.398Z,9.98
2023-06-04T03:54:20.166Z,9.96
2023-06-04T03:56:48.640Z,10.48
2023-06-04T03:59:16.407Z,10.72
2023-06-04T04:01:44.536Z,10.71
2023-06-04T04:04:13.640Z,10.76
2023-06-04T04:06:42.400Z,11.15
2023-06-04T04:09:10.066Z,11.20
2023-06-04T04:11:37.705Z,11.20
2023-06-04T04:14:05.660Z,11.38
2023-06-04T04:16:33.349Z,11.84
2023-06-04T04:19:01.075Z,12.60
2023-06-04T04:21:30.085Z,13.51
2023-06-04T04:23:57.905Z,14.87
2023-06-04T04:26:28.712Z,14.94
2023-06-04T04:28:59.130Z,14.81
2023-06-04T04:31:26.968Z,16.31
2023-06-04T04:33:57.960Z,17.88
2023-06-04T04:36:26.176Z,17.87
2023-06-04T04:38:56.303Z,18.92
2023-06-04T04:41:24.236Z,19.31
2023-06-04T04:43:54.947Z,18.61
2023-06-04T04:46:22.754Z,18.36
2023-06-04T04:48:50.448Z,16.78
2023-06-04T04:51:18.159Z,17.62
2023-06-04T04:53:45.891Z,18.91
2023-06-04T04:56:15.145Z,20.78
2023-06-04T04:58:43.097Z,22.44
2023-06-04T05:01:10.872Z,23.25
2023-06-04T05:03:38.764Z,23.55
2023-06-04T05:06:06.570Z,24.73
2023-06-04T05:08:34.242Z,24.28
2023-06-04T05:11:01.911Z,24.75
2023-06-04T05:13:31.109Z,24.78
2023-06-04T05:15:59.127Z,24.44
2023-06-04T05:18:29.832Z,22.46
2023-06-04T05:20:58.923Z,24.77
2023-06-04T05:23:26.684Z,22.77
2023-06-04T05:25:54.494Z,23.69
2023-06-04T05:28:25.802Z,24.04
2023-06-04T05:31:00.007Z,25.67
2023-06-04T05:33:27.878Z,24.23
2023-06-04T05:35:58.648Z,25.79
2023-06-04T05:38:27.557Z,24.62
2023-06-04T05:40:56.411Z,26.35
2023-06-04T05:43:24.462Z,26.80
2023-06-04T05:45:52.706Z,26.99
2023-06-04T05:48:21.923Z,27.44
2023-06-04T05:50:49.698Z,26.65
2023-06-04T05:53:17.408Z,27.21
2023-06-04T05:55:45.171Z,27.28
2023-06-04T05:58:12.886Z,28.25
2023-06-04T06:00:41.160Z,27.77
2023-06-04T06:03:09.030Z,28.70
2023-06-04T06:05:38.201Z,28.57
2023-06-04T06:08:07.230Z,28.67
2023-06-04T06:10:34.915Z,29.88
2023-06-04T06:13:02.605Z,27.25
2023-06-04T06:15:31.295Z,26.96
2023-06-04T06:17:59.065Z,29.11
2023-06-04T06:20:27.018Z,29.12
2023-06-04T06:22:56.068Z,29.10
2023-06-04T06:25:23.723Z,29.46
2023-06-04T06:27:52.464Z,28.94
2023-06-04T06:30:20.202Z,28.76
2023-06-04T06:32:49.543Z,28.76
2023-06-04T06:35:17.497Z,28.40
2023-06-04T06:37:45.473Z,28.40
2023-06-04T06:40:14.647Z,28.07
2023-06-04T06:42:42.437Z,28.68
2023-06-04T06:45:10.950Z,28.91
2023-06-04T06:47:38.764Z,28.78
2023-06-04T06:50:07.830Z,28.94
2023-06-04T06:52:35.535Z,28.24
2023-06-04T06:55:03.176Z,30.04
2023-06-04T06:57:32.428Z,29.47
2023-06-04T07:00:00.107Z,27.71
2023-06-04T07:02:27.827Z,29.65
2023-06-04T07:04:55.545Z,30.16
2023-06-04T07:07:23.222Z,30.32
2023-06-04T07:09:51.277Z,27.13
2023-06-04T07:12:18.990Z,29.80
2023-06-04T07:14:48.026Z,30.81
2023-06-04T07:17:15.802Z,29.76
2023-06-04T07:19:43.488Z,31.18
2023-06-04T07:22:11.553Z,31.27
2023-06-04T07:24:39.251Z,30.27
2023-06-04T07:27:12.833Z,31.05
2023-06-04T07:29:40.626Z,29.73
2023-06-04T07:32:09.706Z,31.23
2023-06-04T07:34:38.153Z,29.77
2023-06-04T07:37:06.347Z,30.77
2023-06-04T07:39:34.101Z,27.95
2023-06-04T07:42:01.764Z,28.35
2023-06-04T07:44:29.426Z,28.37
2023-06-04T07:46:57.098Z,27.71
2023-06-04T07:49:26.145Z,27.17
2023-06-04T07:51:53.824Z,26.85
2023-06-04T07:54:21.788Z,28.37
2023-06-04T07:56:49.480Z,30.55
2023-06-04T07:59:17.208Z,29.35
2023-06-04T08:01:44.865Z,30.06
2023-06-04T08:04:12.821Z,30.59
2023-06-04T08:06:43.162Z,31.15
2023-06-04T08:09:11.339Z,31.00
2023-06-04T08:11:39.391Z,32.00
2023-06-04T08:14:07.143Z,31.47
2023-06-04T08:16:34.876Z,30.51
2023-06-04T08:19:02.641Z,30.98
2023-06-04T08:21:30.949Z,29.72
2023-06-04T08:24:00.334Z,29.45
2023-06-04T08:26:28.508Z,30.05
2023-06-04T08:28:57.274Z,29.51
2023-06-04T08:31:25.010Z,29.29
2023-06-04T08:33:52.692Z,28.76
2023-06-04T08:36:20.383Z,27.14
2023-06-04T08:38:52.694Z,27.35
2023-06-04T08:41:30.173Z,28.32
2023-06-04T08:44:01.036Z,28.43
2023-06-04T08:46:29.943Z,26.71
2023-06-04T08:49:01.690Z,26.92
2023-06-04T08:51:30.535Z,26.24
2023-06-04T08:54:00.188Z,27.18
2023-06-04T08:56:33.383Z,25.87
2023-06-04T08:59:03.366Z,25.97
2023-06-04T09:01:32.200Z,24.97
2023-06-04T09:04:03.993Z,26.61
2023-06-04T09:06:32.273Z,26.81
2023-06-04T09:09:00.601Z,27.12
2023-06-04T09:11:36.112Z,25.26
2023-06-04T09:14:07.039Z,25.67
2023-06-04T09:16:38.913Z,25.91
2023-06-04T09:19:06.801Z,25.91
2023-06-04T09:21:34.432Z,26.27
2023-06-04T09:24:02.124Z,26.50
2023-06-04T09:26:31.183Z,26.57
2023-06-04T09:29:00.707Z,25.86
2023-06-04T09:31:30.129Z,24.31
2023-06-04T09:33:57.885Z,24.40
2023-06-04T09:36:32.392Z,23.96
2023-06-04T09:39:00.231Z,24.28
2023-06-04T09:41:28.418Z,24.64
2023-06-04T09:44:04.712Z,25.28
2023-06-04T09:46:32.950Z,24.65
2023-06-04T09:49:05.191Z,25.31
2023-06-04T09:51:33.640Z,25.11
2023-06-04T09:54:03.362Z,23.84
2023-06-04T09:56:32.021Z,22.87
2023-06-04T09:59:02.817Z,22.72
2023-06-04T10:01:31.945Z,24.49
2023-06-04T10:04:04.556Z,25.15
2023-06-04T10:06:36.624Z,25.49
2023-06-04T10:09:07.481Z,25.41
2023-06-04T10:11:37.724Z,25.97
2023-06-04T10:14:13.309Z,25.73
2023-06-04T10:16:42.596Z,25.40
2023-06-04T10:19:10.653Z,25.58
2023-06-04T10:21:38.641Z,25.42
2023-06-04T10:24:07.106Z,24.68
2023-06-04T10:26:36.244Z,25.65
2023-06-04T10:29:06.566Z,25.95
2023-06-04T10:31:34.764Z,24.61
2023-06-04T10:34:02.657Z,25.64
2023-06-04T10:36:30.319Z,26.29
2023-06-04T10:38:59.411Z,25.99
2023-06-04T10:41:27.591Z,24.12
2023-06-04T10:44:03.882Z,24.76
2023-06-04T10:46:41.986Z,25.86
2023-06-04T10:49:12.511Z,25.54
2023-06-04T10:51:40.193Z,25.27
2023-06-04T10:54:07.907Z,25.46
2023-06-04T10:56:37.709Z,26.13
2023-06-04T10:59:16.193Z,25.84
2023-06-04T11:01:45.465Z,26.10
2023-06-04T11:04:23.798Z,25.55
2023-06-04T11:07:04.494Z,25.34
2023-06-04T11:09:34.372Z,26.21
2023-06-04T11:12:02.816Z,26.31
2023-06-04T11:14:30.805Z,24.50
2023-06-04T11:16:59.894Z,25.33
2023-06-04T11:19:37.794Z,25.82
2023-06-04T11:22:06.224Z,26.25
2023-06-04T11:24:34.939Z,26.33
2023-06-04T11:27:12.860Z,26.97
2023-06-04T11:29:45.619Z,25.59
2023-06-04T11:32:23.477Z,25.30
2023-06-04T11:34:51.383Z,25.50
2023-06-04T11:37:19.121Z,25.62
2023-06-04T11:39:46.777Z,25.56
2023-06-04T11:42:14.970Z,25.85
2023-06-04T11:44:46.254Z,24.62
2023-06-04T11:47:15.543Z,25.04
2023-06-04T11:49:44.157Z,24.76
2023-06-04T11:52:13.578Z,24.73
2023-06-04T11:54:41.948Z,24.48
2023-06-04T11:57:09.829Z,24.18
2023-06-04T11:59:37.709Z,24.88
2023-06-04T12:02:05.873Z,25.79
2023-06-04T12:04:35.207Z,26.17
2023-06-04T12:07:05.834Z,25.25
2023-06-04T12:09:35.941Z,24.76
2023-06-04T12:12:05.019Z,24.73
2023-06-04T12:14:33.140Z,25.74
2023-06-04T12:17:02.026Z,26.47
2023-06-04T12:19:30.294Z,25.92
2023-06-04T12:22:03.992Z,26.23
2023-06-04T12:24:32.313Z,26.08
2023-06-04T12:27:05.002Z,26.53
2023-06-04T12:29:32.750Z,26.04
2023-06-04T12:32:06.136Z,26.16
2023-06-04T12:34:33.981Z,25.24
2023-06-04T12:37:04.186Z,26.24
2023-06-04T12:39:32.105Z,26.06
2023-06-04T12:41:59.892Z,25.47
2023-06-04T12:44:27.639Z,25.90
2023-06-04T12:46:55.429Z,24.47
2023-06-04T12:49:23.143Z,25.04
2023-06-04T12:51:50.889Z,25.74
2023-06-04T12:54:20.099Z,26.40
2023-06-04T12:56:47.854Z,26.58
2023-06-04T12:59:15.557Z,25.86
2023-06-04T13:01:43.376Z,26.43
2023-06-04T13:04:11.385Z,25.94
2023-06-04T13:06:39.363Z,26.01
2023-06-04T13:09:10.096Z,26.49
2023-06-04T13:11:41.629Z,25.59
2023-06-04T13:14:10.032Z,26.30
2023-06-04T13:16:38.336Z,26.49
2023-06-04T13:19:06.300Z,25.52
2023-06-04T13:21:33.951Z,25.06
2023-06-04T13:24:01.766Z,25.36
2023-06-04T13:26:29.503Z,24.72
2023-06-04T13:28:58.555Z,25.35
2023-06-04T13:31:26.641Z,25.01
2023-06-04T13:33:54.337Z,25.89
2023-06-04T13:36:22.337Z,26.03
2023-06-04T13:38:49.987Z,26.23
2023-06-04T13:41:17.642Z,24.81
2023-06-04T13:43:45.471Z,25.48
2023-06-04T13:46:14.645Z,25.70
2023-06-04T13:48:42.345Z,26.04
2023-06-04T13:51:10.253Z,26.81
2023-06-04T13:53:38.164Z,26.80
2023-06-04T13:56:06.001Z,25.65
2023-06-04T13:58:33.633Z,25.34
2023-06-04T14:01:01.357Z,26.22
2023-06-04T14:03:30.537Z,26.23
2023-06-04T14:05:58.295Z,26.06
2023-06-04T14:08:25.971Z,25.27
2023-06-04T14:10:56.031Z,26.01
2023-06-04T14:13:23.753Z,26.01
2023-06-04T14:15:52.026Z,25.96
2023-06-04T14:18:19.806Z,25.45
2023-06-04T14:20:48.925Z,26.17
2023-06-04T14:23:17.679Z,26.27
2023-06-04T14:25:45.452Z,26.02
2023-06-04T14:28:13.195Z,25.77
2023-06-04T14:30:40.908Z,26.31
2023-06-04T14:33:08.707Z,26.21
2023-06-04T14:35:36.417Z,26.19
2023-06-04T14:38:05.786Z,25.44
2023-06-04T14:40:36.594Z,26.07
2023-06-04T14:43:04.323Z,26.10
2023-06-04T14:45:31.983Z,26.20
2023-06-04T14:48:13.375Z,27.08
2023-06-04T14:50:42.377Z,27.15
2023-06-04T14:53:11.438Z,26.89
2023-06-04T14:55:39.133Z,26.17
2023-06-04T14:58:07.151Z,25.52
2023-06-04T15:00:34.853Z,25.86
2023-06-04T15:03:04.385Z,25.40
2023-06-04T15:05:33.745Z,25.64
2023-06-04T15:08:01.767Z,25.47
2023-06-04T15:10:30.849Z,25.50
2023-06-04T15:12:58.875Z,25.25
2023-06-04T15:15:28.062Z,25.47
2023-06-04T15:17:55.884Z,25.80
2023-06-04T15:20:26.037Z,25.10
2023-06-04T15:22:53.755Z,24.08
2023-06-04T15:25:21.614Z,25.81
2023-06-04T15:27:50.788Z,25.70
2023-06-04T15:30:18.951Z,25.27
2023-06-04T15:32:46.766Z,25.36
2023-06-04T15:35:14.561Z,25.86
2023-06-04T15:37:42.235Z,25.37
2023-06-04T15:40:11.864Z,25.14
2023-06-04T15:42:39.557Z,24.88
2023-06-04T15:45:10.240Z,24.85
2023-06-04T15:47:38.486Z,25.22
2023-06-04T15:50:07.635Z,24.96
2023-06-04T15:52:35.334Z,25.55
2023-06-04T15:55:03.023Z,25.71
2023-06-04T15:57:30.683Z,25.75
2023-06-04T15:59:58.371Z,25.97
2023-06-04T16:02:27.537Z,25.72
2023-06-04T16:04:55.292Z,25.06
2023-06-04T16:07:23.018Z,24.84
2023-06-04T16:09:50.693Z,24.50
2023-06-04T16:12:18.340Z,24.79
2023-06-04T16:14:46.283Z,25.19
2023-06-04T16:17:13.990Z,24.88
2023-06-04T16:19:43.016Z,24.77
2023-06-04T16:22:10.706Z,24.79
2023-06-04T16:24:38.380Z,25.01
2023-06-04T16:27:06.428Z,25.43
2023-06-04T16:29:34.144Z,25.62
2023-06-04T16:32:01.851Z,24.90
2023-06-04T16:34:29.494Z,24.22
2023-06-04T16:36:58.864Z,23.68
2023-06-04T16:39:26.753Z,24.42
2023-06-04T16:41:54.752Z,23.69
2023-06-04T16:44:22.441Z,23.86
2023-06-04T16:46:50.147Z,23.00
2023-06-04T16:49:17.916Z,23.16
2023-06-04T16:51:45.615Z,23.58
2023-06-04T16:54:14.644Z,23.73
2023-06-04T16:56:42.316Z,23.29
2023-06-04T16:59:10.231Z,23.70
2023-06-04T17:01:40.180Z,24.12
2023-06-04T17:04:07.861Z,23.59
2023-06-04T17:06:36.945Z,24.48
2023-06-04T17:09:04.793Z,24.16
2023-06-04T17:11:34.193Z,23.84
2023-06-04T17:14:02.966Z,23.65
2023-06-04T17:16:30.670Z,23.45
2023-06-04T17:18:58.369Z,23.97
2023-06-04T17:21:26.060Z,24.05
2023-06-04T17:23:53.800Z,24.40
2023-06-04T17:26:22.960Z,24.06
2023-06-04T17:28:52.051Z,23.75
2023-06-04T17:31:19.815Z,23.92
2023-06-04T17:33:47.559Z,23.83
2023-06-04T17:36:15.261Z,24.08
2023-06-04T17:38:42.966Z,23.33
2023-06-04T17:41:10.940Z,23.49
2023-06-04T17:43:40.172Z,23.74
2023-06-04T17:46:09.486Z,23.81
2023-06-04T17:48:37.460Z,23.71
2023-06-04T17:51:06.291Z,23.11
2023-06-04T17:53:34.222Z,23.51
2023-06-04T17:56:01.897Z,22.44
2023-06-04T17:58:30.254Z,23.45
2023-06-04T18:00:58.264Z,23.85
2023-06-04T18:03:27.425Z,23.23
2023-06-04T18:05:55.172Z,22.79
2023-06-04T18:08:23.199Z,23.33
2023-06-04T18:10:50.921Z,22.56
2023-06-04T18:13:18.685Z,22.43
2023-06-04T18:15:46.451Z,22.44
2023-06-04T18:18:14.264Z,22.83
2023-06-04T18:20:43.347Z,22.65
2023-06-04T18:23:13.194Z,22.60
2023-06-04T18:25:41.130Z,22.22
2023-06-04T18:28:08.887Z,21.67
2023-06-04T18:30:36.523Z,22.16
2023-06-04T18:33:04.364Z,22.45
2023-06-04T18:35:33.153Z,22.27
2023-06-04T18:38:04.656Z,22.41
2023-06-04T18:40:32.479Z,22.32
2023-06-04T18:43:00.199Z,22.22
2023-06-04T18:45:27.927Z,22.14
2023-06-04T18:47:55.926Z,21.88
2023-06-04T18:50:23.823Z,22.06
2023-06-04T18:52:51.634Z,21.84
2023-06-04T18:55:20.782Z,22.46
2023-06-04T18:57:48.763Z,21.96
2023-06-04T19:00:17.249Z,21.69
2023-06-04T19:02:45.747Z,21.90
2023-06-04T19:05:13.437Z,21.82
2023-06-04T19:07:41.626Z,21.99
2023-06-04T19:10:09.883Z,21.40
2023-06-04T19:12:40.641Z,21.83
2023-06-04T19:15:09.621Z,21.95
2023-06-04T19:17:37.370Z,21.59
2023-06-04T19:20:05.668Z,21.17
2023-06-04T19:22:33.398Z,21.71
2023-06-04T19:25:01.081Z,21.99
2023-06-04T19:27:28.944Z,21.54
2023-06-04T19:29:57.980Z,21.83
2023-06-04T19:32:29.066Z,21.69
2023-06-04T19:34:57.213Z,21.68
2023-06-04T19:37:24.936Z,21.38
2023-06-04T19:39:52.573Z,21.24
2023-06-04T19:42:21.594Z,21.31
2023-06-04T19:44:49.267Z,21.30
2023-06-04T19:47:18.258Z,21.40
2023-06-04T19:49:46.894Z,21.03
2023-06-04T19:52:14.613Z,21.13
2023-06-04T19:54:42.375Z,20.95
2023-06-04T19:57:11.253Z,21.00
2023-06-04T19:59:40.392Z,20.78
2023-06-04T20:02:08.740Z,20.89
2023-06-04T20:04:37.881Z,20.93
2023-06-04T20:07:05.844Z,20.87
2023-06-04T20:09:34.972Z,20.95
2023-06-04T20:12:03.672Z,20.85
2023-06-04T20:14:32.946Z,20.68
2023-06-04T20:17:00.895Z,20.56
2023-06-04T20:19:28.578Z,20.15
2023-06-04T20:21:57.585Z,20.15
2023-06-04T20:24:25.590Z,20.20
2023-06-04T20:26:53.615Z,20.35
2023-06-04T20:29:21.302Z,20.41
2023-06-04T20:31:48.974Z,20.40
2023-06-04T20:34:16.687Z,20.39
2023-06-04T20:36:44.747Z,20.29
2023-06-04T20:39:13.776Z,20.10
2023-06-04T20:41:41.920Z,20.01
2023-06-04T20:44:09.631Z,20.24
2023-06-04T20:46:37.370Z,19.70
2023-06-04T20:49:05.153Z,19.88
2023-06-04T20:51:33.684Z,20.04
2023-06-04T20:54:01.651Z,19.81
2023-06-04T20:56:30.738Z,19.71
2023-06-04T20:58:58.513Z,19.88
2023-06-04T21:01:26.504Z,19.92
2023-06-04T21:03:54.256Z,19.83
2023-06-04T21:06:22.104Z,19.75
2023-06-04T21:08:49.927Z,19.31
2023-06-04T21:11:17.705Z,17.44
2023-06-04T21:13:46.803Z,17.62
2023-06-04T21:18:42.342Z,16.47
2023-06-04T21:21:10.271Z,16.14
2023-06-04T21:23:38.301Z,16.53
2023-06-04T21:26:06.193Z,17.33
2023-06-04T21:28:33.920Z,17.97
2023-06-04T21:31:02.985Z,18.27
2023-06-04T21:33:30.677Z,16.21
2023-06-04T21:35:58.351Z,16.22
2023-06-04T21:38:27.400Z,16.86
2023-06-04T21:40:55.106Z,17.30
2023-06-04T21:43:23.177Z,17.43
2023-06-04T21:45:51.594Z,17.57
2023-06-04T21:48:20.657Z,16.78
2023-06-04T21:50:50.745Z,15.61
2023-06-04T21:53:18.396Z,15.88
2023-06-04T21:55:46.035Z,15.74
2023-06-04T21:58:13.739Z,15.72
2023-06-04T22:00:41.883Z,16.42
2023-06-04T22:03:09.669Z,16.71
2023-06-04T22:05:39.062Z,16.38
2023-06-04T22:08:06.814Z,16.13
2023-06-04T22:10:34.487Z,16.56
2023-06-04T22:13:02.193Z,16.05
2023-06-04T22:15:29.871Z,16.03
2023-06-04T22:18:00.508Z,16.36
2023-06-04T22:20:31.471Z,15.41
2023-06-04T22:23:00.480Z,14.85
2023-06-04T22:25:28.193Z,14.54
2023-06-04T22:27:55.867Z,14.81
2023-06-04T22:30:23.506Z,14.37
2023-06-04T22:32:51.337Z,14.22
2023-06-04T22:35:19.662Z,13.63
2023-06-04T22:37:47.603Z,13.88
2023-06-04T22:40:16.947Z,13.88
2023-06-04T22:42:44.713Z,13.84
2023-06-04T22:45:12.487Z,13.55
2023-06-04T22:47:40.404Z,13.27
2023-06-04T22:50:09.162Z,14.08
2023-06-04T22:52:41.044Z,14.35
2023-06-04T22:55:10.069Z,14.78
2023-06-04T22:57:39.926Z,13.96
2023-06-04T23:00:09.852Z,14.14
2023-06-04T23:02:37.663Z,13.64
2023-06-04T23:05:06.124Z,13.46
2023-06-04T23:07:33.996Z,13.56
2023-06-04T23:10:02.362Z,13.80
2023-06-04T23:12:30.052Z,13.86
2023-06-04T23:14:59.214Z,13.05
2023-06-04T23:17:27.000Z,13.37
2023-06-04T23:19:56.284Z,14.05
2023-06-04T23:22:24.336Z,13.31
2023-06-04T23:24:52.018Z,13.79
2023-06-04T23:27:19.905Z,13.05
2023-06-04T23:29:47.606Z,13.55
2023-06-04T23:32:16.935Z,13.71
2023-06-04T23:34:44.784Z,14.06
2023-06-04T23:37:12.612Z,13.18
2023-06-04T23:39:40.367Z,13.08
2023-06-04T23:42:08.197Z,13.18
2023-06-04T23:44:35.907Z,13.36
2023-06-04T23:47:03.564Z,13.01
2023-06-04T23:49:32.692Z,13.05
2023-06-04T23:52:00.413Z,13.38
2023-06-04T23:54:28.116Z,12.80
2023-06-04T23:56:55.832Z,12.47
2023-06-04T23:59:23.553Z,12.52
